sensor_id;sensor_type;location;lat;lon;timestamp;temperature;humidity
35258;DHT22;21385;50.878;8.050;2023-06-26T00:00:45;20.50;99.90
35258;DHT22;21385;50.878;8.050;2023-06-26T00:03:12;20.40;99.90
35258;DHT22;21385;50.878;8.050;2023-06-26T00:05:41;20.40;99.90
35258;DHT22;21385;50.878;8.050;2023-06-26T00:08:07;20.40;99.90
35258;DHT22;21385;50.878;8.050;2023-06-26T00:10:32;20.30;99.90
35258;DHT22;21385;50.878;8.050;2023-06-26T00:12:58;20.40;99.90
35258;DHT22;21385;50.878;8.050;2023-06-26T00:15:23;20.30;99.90
35258;DHT22;21385;50.878;8.050;2023-06-26T00:17:49;20.30;99.90
35258;DHT22;21385;50.878;8.050;2023-06-26T00:20:16;20.20;99.90
35258;DHT22;21385;50.878;8.050;2023-06-26T00:22:42;20.20;99.90
35258;DHT22;21385;50.878;8.050;2023-06-26T00:25:08;20.20;99.90
35258;DHT22;21385;50.878;8.050;2023-06-26T00:27:33;20.10;99.90
35258;DHT22;21385;50.878;8.050;2023-06-26T00:29:59;20.10;99.90
35258;DHT22;21385;50.878;8.050;2023-06-26T00:32:24;20.10;99.90
35258;DHT22;21385;50.878;8.050;2023-06-26T00:34:50;20.00;99.90
35258;DHT22;21385;50.878;8.050;2023-06-26T00:37:15;20.00;99.90
35258;DHT22;21385;50.878;8.050;2023-06-26T00:39:41;19.90;99.90
35258;DHT22;21385;50.878;8.050;2023-06-26T00:42:07;19.80;99.90
35258;DHT22;21385;50.878;8.050;2023-06-26T00:44:32;19.80;99.90
35258;DHT22;21385;50.878;8.050;2023-06-26T00:46:59;19.80;99.90
35258;DHT22;21385;50.878;8.050;2023-06-26T00:49:25;19.70;99.90
35258;DHT22;21385;50.878;8.050;2023-06-26T00:51:51;19.70;99.90
35258;DHT22;21385;50.878;8.050;2023-06-26T00:54:17;19.60;99.90
35258;DHT22;21385;50.878;8.050;2023-06-26T00:56:46;19.60;99.90
35258;DHT22;21385;50.878;8.050;2023-06-26T00:59:13;19.50;99.90
35258;DHT22;21385;50.878;8.050;2023-06-26T01:01:39;19.40;99.90
35258;DHT22;21385;50.878;8.050;2023-06-26T01:04:05;19.40;99.90
35258;DHT22;21385;50.878;8.050;2023-06-26T01:06:32;19.30;99.90
35258;DHT22;21385;50.878;8.050;2023-06-26T01:09:02;19.20;99.90
35258;DHT22;21385;50.878;8.050;2023-06-26T01:11:27;19.30;99.90
35258;DHT22;21385;50.878;8.050;2023-06-26T01:13:54;19.20;99.90
35258;DHT22;21385;50.878;8.050;2023-06-26T01:18:48;19.10;99.90
35258;DHT22;21385;50.878;8.050;2023-06-26T01:21:15;19.00;99.90
35258;DHT22;21385;50.878;8.050;2023-06-26T01:24:02;19.00;99.90
35258;DHT22;21385;50.878;8.050;2023-06-26T01:26:32;18.90;99.90
35258;DHT22;21385;50.878;8.050;2023-06-26T01:29:03;18.90;99.90
35258;DHT22;21385;50.878;8.050;2023-06-26T01:31:30;18.90;99.90
35258;DHT22;21385;50.878;8.050;2023-06-26T01:33:57;18.80;99.90
35258;DHT22;21385;50.878;8.050;2023-06-26T01:36:24;18.70;99.90
35258;DHT22;21385;50.878;8.050;2023-06-26T01:38:49;18.70;99.90
35258;DHT22;21385;50.878;8.050;2023-06-26T01:41:17;18.70;99.90
35258;DHT22;21385;50.878;8.050;2023-06-26T01:47:02;18.70;99.90
35258;DHT22;21385;50.878;8.050;2023-06-26T01:52:07;18.60;99.90
35258;DHT22;21385;50.878;8.050;2023-06-26T01:54:39;18.60;99.90
35258;DHT22;21385;50.878;8.050;2023-06-26T01:57:08;18.60;99.90
35258;DHT22;21385;50.878;8.050;2023-06-26T01:59:35;18.60;99.90
35258;DHT22;21385;50.878;8.050;2023-06-26T02:02:02;18.60;99.90
35258;DHT22;21385;50.878;8.050;2023-06-26T02:04:31;18.60;99.90
35258;DHT22;21385;50.878;8.050;2023-06-26T02:06:57;18.50;99.90
35258;DHT22;21385;50.878;8.050;2023-06-26T02:09:23;18.50;99.90
35258;DHT22;21385;50.878;8.050;2023-06-26T02:11:48;18.50;99.90
35258;DHT22;21385;50.878;8.050;2023-06-26T02:14:14;18.40;99.90
35258;DHT22;21385;50.878;8.050;2023-06-26T02:16:39;18.40;99.90
35258;DHT22;21385;50.878;8.050;2023-06-26T02:19:05;18.30;99.90
35258;DHT22;21385;50.878;8.050;2023-06-26T02:21:30;18.30;99.90
35258;DHT22;21385;50.878;8.050;2023-06-26T02:23:56;18.20;99.90
35258;DHT22;21385;50.878;8.050;2023-06-26T02:26:21;18.20;99.90
35258;DHT22;21385;50.878;8.050;2023-06-26T02:28:47;18.10;99.90
35258;DHT22;21385;50.878;8.050;2023-06-26T02:31:13;18.10;99.90
35258;DHT22;21385;50.878;8.050;2023-06-26T02:33:38;18.10;99.90
35258;DHT22;21385;50.878;8.050;2023-06-26T02:36:04;18.10;99.90
35258;DHT22;21385;50.878;8.050;2023-06-26T02:38:30;18.10;99.90
35258;DHT22;21385;50.878;8.050;2023-06-26T02:40:55;18.00;99.90
35258;DHT22;21385;50.878;8.050;2023-06-26T02:43:21;18.00;99.90
35258;DHT22;21385;50.878;8.050;2023-06-26T02:45:47;18.00;99.90
35258;DHT22;21385;50.878;8.050;2023-06-26T02:48:12;18.00;99.90
35258;DHT22;21385;50.878;8.050;2023-06-26T02:50:38;18.00;99.90
35258;DHT22;21385;50.878;8.050;2023-06-26T02:53:03;18.00;99.90
35258;DHT22;21385;50.878;8.050;2023-06-26T02:55:29;17.90;99.90
35258;DHT22;21385;50.878;8.050;2023-06-26T02:57:54;18.00;99.90
35258;DHT22;21385;50.878;8.050;2023-06-26T03:00:20;17.90;99.90
35258;DHT22;21385;50.878;8.050;2023-06-26T03:02:45;17.90;99.90
35258;DHT22;21385;50.878;8.050;2023-06-26T03:05:11;17.90;99.90
35258;DHT22;21385;50.878;8.050;2023-06-26T03:07:38;17.90;99.90
35258;DHT22;21385;50.878;8.050;2023-06-26T03:10:04;17.90;99.90
35258;DHT22;21385;50.878;8.050;2023-06-26T03:12:30;17.80;99.90
35258;DHT22;21385;50.878;8.050;2023-06-26T03:14:56;17.80;99.90
35258;DHT22;21385;50.878;8.050;2023-06-26T03:19:47;17.70;99.90
35258;DHT22;21385;50.878;8.050;2023-06-26T03:22:13;17.60;99.90
35258;DHT22;21385;50.878;8.050;2023-06-26T03:24:39;17.50;99.90
35258;DHT22;21385;50.878;8.050;2023-06-26T03:27:05;17.50;99.90
35258;DHT22;21385;50.878;8.050;2023-06-26T03:29:30;17.50;99.90
35258;DHT22;21385;50.878;8.050;2023-06-26T03:31:56;17.60;99.90
35258;DHT22;21385;50.878;8.050;2023-06-26T03:34:22;17.50;99.90
35258;DHT22;21385;50.878;8.050;2023-06-26T03:36:47;17.60;99.90
35258;DHT22;21385;50.878;8.050;2023-06-26T03:39:13;17.50;99.90
35258;DHT22;21385;50.878;8.050;2023-06-26T03:41:38;17.60;99.90
35258;DHT22;21385;50.878;8.050;2023-06-26T03:44:04;17.50;99.90
35258;DHT22;21385;50.878;8.050;2023-06-26T03:46:29;17.50;99.90
35258;DHT22;21385;50.878;8.050;2023-06-26T03:48:55;17.50;99.90
35258;DHT22;21385;50.878;8.050;2023-06-26T03:51:21;17.50;99.90
35258;DHT22;21385;50.878;8.050;2023-06-26T03:53:46;17.50;99.90
35258;DHT22;21385;50.878;8.050;2023-06-26T03:56:12;17.50;99.90
35258;DHT22;21385;50.878;8.050;2023-06-26T03:58:39;17.40;99.90
35258;DHT22;21385;50.878;8.050;2023-06-26T04:01:04;17.40;99.90
35258;DHT22;21385;50.878;8.050;2023-06-26T04:03:30;17.30;99.90
35258;DHT22;21385;50.878;8.050;2023-06-26T04:05:56;17.30;99.90
35258;DHT22;21385;50.878;8.050;2023-06-26T04:08:23;17.30;99.90
35258;DHT22;21385;50.878;8.050;2023-06-26T04:10:50;17.40;99.90
35258;DHT22;21385;50.878;8.050;2023-06-26T04:13:17;17.40;99.90
35258;DHT22;21385;50.878;8.050;2023-06-26T04:15:42;17.30;99.90
35258;DHT22;21385;50.878;8.050;2023-06-26T04:18:08;17.40;99.90
35258;DHT22;21385;50.878;8.050;2023-06-26T04:20:38;17.40;99.90
35258;DHT22;21385;50.878;8.050;2023-06-26T04:23:05;17.40;99.90
35258;DHT22;21385;50.878;8.050;2023-06-26T04:25:30;17.40;99.90
35258;DHT22;21385;50.878;8.050;2023-06-26T04:27:56;17.40;99.90
35258;DHT22;21385;50.878;8.050;2023-06-26T04:30:21;17.50;99.90
35258;DHT22;21385;50.878;8.050;2023-06-26T04:32:47;17.50;99.90
35258;DHT22;21385;50.878;8.050;2023-06-26T04:35:12;17.50;99.90
35258;DHT22;21385;50.878;8.050;2023-06-26T04:37:38;17.50;99.90
35258;DHT22;21385;50.878;8.050;2023-06-26T04:40:05;17.60;99.90
35258;DHT22;21385;50.878;8.050;2023-06-26T04:42:32;17.90;99.90
35258;DHT22;21385;50.878;8.050;2023-06-26T04:47:24;18.80;99.90
35258;DHT22;21385;50.878;8.050;2023-06-26T04:49:49;19.00;99.90
35258;DHT22;21385;50.878;8.050;2023-06-26T04:52:15;19.30;99.90
35258;DHT22;21385;50.878;8.050;2023-06-26T04:54:40;19.50;99.90
35258;DHT22;21385;50.878;8.050;2023-06-26T04:57:06;19.60;99.90
35258;DHT22;21385;50.878;8.050;2023-06-26T04:59:32;19.80;99.90
35258;DHT22;21385;50.878;8.050;2023-06-26T05:01:57;20.20;99.90
35258;DHT22;21385;50.878;8.050;2023-06-26T05:04:23;20.60;99.90
35258;DHT22;21385;50.878;8.050;2023-06-26T05:06:49;20.90;99.90
35258;DHT22;21385;50.878;8.050;2023-06-26T05:09:14;21.20;99.90
35258;DHT22;21385;50.878;8.050;2023-06-26T05:11:40;21.40;99.90
35258;DHT22;21385;50.878;8.050;2023-06-26T05:14:05;21.50;99.90
35258;DHT22;21385;50.878;8.050;2023-06-26T05:16:34;21.60;99.90
35258;DHT22;21385;50.878;8.050;2023-06-26T05:19:00;21.60;99.90
35258;DHT22;21385;50.878;8.050;2023-06-26T05:21:26;21.70;99.90
35258;DHT22;21385;50.878;8.050;2023-06-26T05:23:56;21.70;99.90
35258;DHT22;21385;50.878;8.050;2023-06-26T05:26:22;21.80;99.90
35258;DHT22;21385;50.878;8.050;2023-06-26T05:28:48;21.80;99.90
35258;DHT22;21385;50.878;8.050;2023-06-26T05:31:15;21.80;99.90
35258;DHT22;21385;50.878;8.050;2023-06-26T05:33:43;21.80;99.90
35258;DHT22;21385;50.878;8.050;2023-06-26T05:36:11;21.80;99.90
35258;DHT22;21385;50.878;8.050;2023-06-26T05:38:37;21.70;99.90
35258;DHT22;21385;50.878;8.050;2023-06-26T05:41:03;21.70;99.90
35258;DHT22;21385;50.878;8.050;2023-06-26T05:43:29;21.70;99.90
35258;DHT22;21385;50.878;8.050;2023-06-26T05:45:56;21.80;99.90
35258;DHT22;21385;50.878;8.050;2023-06-26T05:48:23;21.90;99.90
35258;DHT22;21385;50.878;8.050;2023-06-26T05:50:49;21.90;99.90
35258;DHT22;21385;50.878;8.050;2023-06-26T05:53:15;22.00;99.90
35258;DHT22;21385;50.878;8.050;2023-06-26T05:55:41;22.10;99.90
35258;DHT22;21385;50.878;8.050;2023-06-26T05:58:10;22.10;99.90
35258;DHT22;21385;50.878;8.050;2023-06-26T06:00:36;22.10;99.90
35258;DHT22;21385;50.878;8.050;2023-06-26T06:03:01;22.10;99.90
35258;DHT22;21385;50.878;8.050;2023-06-26T06:05:28;22.10;99.90
35258;DHT22;21385;50.878;8.050;2023-06-26T06:07:53;22.20;99.90
35258;DHT22;21385;50.878;8.050;2023-06-26T06:10:19;22.20;99.90
35258;DHT22;21385;50.878;8.050;2023-06-26T06:12:44;22.30;99.90
35258;DHT22;21385;50.878;8.050;2023-06-26T06:15:10;22.20;99.90
35258;DHT22;21385;50.878;8.050;2023-06-26T06:17:36;22.20;99.90
35258;DHT22;21385;50.878;8.050;2023-06-26T06:20:01;22.10;99.90
35258;DHT22;21385;50.878;8.050;2023-06-26T06:22:27;22.10;99.90
35258;DHT22;21385;50.878;8.050;2023-06-26T06:24:52;22.10;99.90
35258;DHT22;21385;50.878;8.050;2023-06-26T06:27:18;22.00;99.90
35258;DHT22;21385;50.878;8.050;2023-06-26T06:29:44;22.00;99.90
35258;DHT22;21385;50.878;8.050;2023-06-26T06:32:09;22.00;99.90
35258;DHT22;21385;50.878;8.050;2023-06-26T06:34:35;22.00;99.90
35258;DHT22;21385;50.878;8.050;2023-06-26T06:37:02;22.00;99.90
35258;DHT22;21385;50.878;8.050;2023-06-26T06:39:28;21.90;99.90
35258;DHT22;21385;50.878;8.050;2023-06-26T06:41:54;21.90;99.90
35258;DHT22;21385;50.878;8.050;2023-06-26T06:44:20;21.90;99.90
35258;DHT22;21385;50.878;8.050;2023-06-26T06:46:45;21.90;99.90
35258;DHT22;21385;50.878;8.050;2023-06-26T06:49:11;21.90;99.90
35258;DHT22;21385;50.878;8.050;2023-06-26T06:51:36;22.00;99.90
35258;DHT22;21385;50.878;8.050;2023-06-26T06:54:02;22.00;99.90
35258;DHT22;21385;50.878;8.050;2023-06-26T06:56:27;22.00;99.90
35258;DHT22;21385;50.878;8.050;2023-06-26T06:58:53;22.10;99.90
35258;DHT22;21385;50.878;8.050;2023-06-26T07:01:19;22.20;99.90
35258;DHT22;21385;50.878;8.050;2023-06-26T07:03:44;22.30;99.90
35258;DHT22;21385;50.878;8.050;2023-06-26T07:06:10;22.30;99.90
35258;DHT22;21385;50.878;8.050;2023-06-26T07:08:35;22.40;99.90
35258;DHT22;21385;50.878;8.050;2023-06-26T07:11:01;22.60;99.90
35258;DHT22;21385;50.878;8.050;2023-06-26T07:13:27;22.70;99.90
35258;DHT22;21385;50.878;8.050;2023-06-26T07:15:52;22.70;99.90
35258;DHT22;21385;50.878;8.050;2023-06-26T07:18:18;22.70;99.90
35258;DHT22;21385;50.878;8.050;2023-06-26T07:20:44;22.80;99.90
35258;DHT22;21385;50.878;8.050;2023-06-26T07:23:09;22.80;99.90
35258;DHT22;21385;50.878;8.050;2023-06-26T07:25:35;22.80;99.90
35258;DHT22;21385;50.878;8.050;2023-06-26T07:28:01;22.80;99.90
35258;DHT22;21385;50.878;8.050;2023-06-26T07:30:26;22.80;99.90
35258;DHT22;21385;50.878;8.050;2023-06-26T07:32:52;22.70;99.90
35258;DHT22;21385;50.878;8.050;2023-06-26T07:35:17;22.70;99.90
35258;DHT22;21385;50.878;8.050;2023-06-26T07:37:43;22.70;99.90
35258;DHT22;21385;50.878;8.050;2023-06-26T07:40:09;22.70;99.90
35258;DHT22;21385;50.878;8.050;2023-06-26T07:42:35;22.80;99.90
35258;DHT22;21385;50.878;8.050;2023-06-26T07:45:01;22.90;99.90
35258;DHT22;21385;50.878;8.050;2023-06-26T07:47:27;22.90;99.90
35258;DHT22;21385;50.878;8.050;2023-06-26T07:49:52;22.90;99.90
35258;DHT22;21385;50.878;8.050;2023-06-26T07:52:19;22.80;99.90
35258;DHT22;21385;50.878;8.050;2023-06-26T07:54:44;22.80;99.90
35258;DHT22;21385;50.878;8.050;2023-06-26T07:57:10;22.80;99.90
35258;DHT22;21385;50.878;8.050;2023-06-26T07:59:37;22.90;99.90
35258;DHT22;21385;50.878;8.050;2023-06-26T08:02:03;23.10;99.90
35258;DHT22;21385;50.878;8.050;2023-06-26T08:04:29;23.10;99.90
35258;DHT22;21385;50.878;8.050;2023-06-26T08:06:58;23.10;99.90
35258;DHT22;21385;50.878;8.050;2023-06-26T08:09:26;23.20;99.90
35258;DHT22;21385;50.878;8.050;2023-06-26T08:11:51;23.40;99.90
35258;DHT22;21385;50.878;8.050;2023-06-26T08:14:17;23.60;99.90
35258;DHT22;21385;50.878;8.050;2023-06-26T08:16:44;23.60;99.90
35258;DHT22;21385;50.878;8.050;2023-06-26T08:19:13;23.50;99.90
35258;DHT22;21385;50.878;8.050;2023-06-26T08:21:44;23.40;99.90
35258;DHT22;21385;50.878;8.050;2023-06-26T08:24:10;23.40;99.90
35258;DHT22;21385;50.878;8.050;2023-06-26T08:26:36;23.40;99.90
35258;DHT22;21385;50.878;8.050;2023-06-26T08:29:02;23.40;99.90
35258;DHT22;21385;50.878;8.050;2023-06-26T08:31:38;23.50;99.90
35258;DHT22;21385;50.878;8.050;2023-06-26T08:34:04;23.60;99.90
35258;DHT22;21385;50.878;8.050;2023-06-26T08:36:30;23.60;99.90
35258;DHT22;21385;50.878;8.050;2023-06-26T08:38:56;23.40;99.90
35258;DHT22;21385;50.878;8.050;2023-06-26T08:41:22;23.30;99.90
35258;DHT22;21385;50.878;8.050;2023-06-26T08:43:48;23.10;99.90
35258;DHT22;21385;50.878;8.050;2023-06-26T08:46:15;23.10;99.90
35258;DHT22;21385;50.878;8.050;2023-06-26T08:48:45;23.10;99.90
35258;DHT22;21385;50.878;8.050;2023-06-26T08:51:16;23.10;99.90
35258;DHT22;21385;50.878;8.050;2023-06-26T08:53:52;23.20;99.90
35258;DHT22;21385;50.878;8.050;2023-06-26T08:56:21;23.30;99.90
35258;DHT22;21385;50.878;8.050;2023-06-26T08:58:48;23.50;99.90
35258;DHT22;21385;50.878;8.050;2023-06-26T09:01:14;23.60;99.90
35258;DHT22;21385;50.878;8.050;2023-06-26T09:03:40;23.60;99.90
35258;DHT22;21385;50.878;8.050;2023-06-26T09:06:07;23.80;99.90
35258;DHT22;21385;50.878;8.050;2023-06-26T09:08:32;23.80;99.90
35258;DHT22;21385;50.878;8.050;2023-06-26T09:10:58;23.70;99.90
35258;DHT22;21385;50.878;8.050;2023-06-26T09:13:24;23.70;99.90
35258;DHT22;21385;50.878;8.050;2023-06-26T09:15:53;23.70;99.90
35258;DHT22;21385;50.878;8.050;2023-06-26T09:18:20;23.70;99.90
35258;DHT22;21385;50.878;8.050;2023-06-26T09:20:45;23.70;99.90
35258;DHT22;21385;50.878;8.050;2023-06-26T09:23:11;23.70;99.90
35258;DHT22;21385;50.878;8.050;2023-06-26T09:25:39;23.80;99.90
35258;DHT22;21385;50.878;8.050;2023-06-26T09:28:05;23.80;99.90
35258;DHT22;21385;50.878;8.050;2023-06-26T09:30:32;23.90;99.90
35258;DHT22;21385;50.878;8.050;2023-06-26T09:33:19;24.10;99.90
35258;DHT22;21385;50.878;8.050;2023-06-26T09:35:46;24.10;99.90
35258;DHT22;21385;50.878;8.050;2023-06-26T09:38:12;24.00;99.90
35258;DHT22;21385;50.878;8.050;2023-06-26T09:40:40;24.10;99.90
35258;DHT22;21385;50.878;8.050;2023-06-26T09:43:09;24.10;99.90
35258;DHT22;21385;50.878;8.050;2023-06-26T09:45:39;24.10;99.90
35258;DHT22;21385;50.878;8.050;2023-06-26T09:48:06;24.10;99.90
35258;DHT22;21385;50.878;8.050;2023-06-26T09:50:34;23.90;99.90
35258;DHT22;21385;50.878;8.050;2023-06-26T09:53:10;23.70;99.90
35258;DHT22;21385;50.878;8.050;2023-06-26T09:55:37;23.80;99.90
35258;DHT22;21385;50.878;8.050;2023-06-26T09:58:03;23.90;99.90
35258;DHT22;21385;50.878;8.050;2023-06-26T10:00:30;23.90;99.90
35258;DHT22;21385;50.878;8.050;2023-06-26T10:02:56;24.10;99.90
35258;DHT22;21385;50.878;8.050;2023-06-26T10:05:22;24.20;99.90
35258;DHT22;21385;50.878;8.050;2023-06-26T10:07:48;24.30;99.90
35258;DHT22;21385;50.878;8.050;2023-06-26T10:10:15;24.50;99.90
35258;DHT22;21385;50.878;8.050;2023-06-26T10:12:44;24.60;99.90
35258;DHT22;21385;50.878;8.050;2023-06-26T10:15:11;24.60;99.90
35258;DHT22;21385;50.878;8.050;2023-06-26T10:17:41;24.70;99.90
35258;DHT22;21385;50.878;8.050;2023-06-26T10:20:08;24.70;99.90
35258;DHT22;21385;50.878;8.050;2023-06-26T10:22:41;24.70;99.90
35258;DHT22;21385;50.878;8.050;2023-06-26T10:25:09;24.70;99.90
35258;DHT22;21385;50.878;8.050;2023-06-26T10:27:40;24.70;99.90
35258;DHT22;21385;50.878;8.050;2023-06-26T10:30:12;24.80;99.90
35258;DHT22;21385;50.878;8.050;2023-06-26T10:35:06;25.20;99.90
35258;DHT22;21385;50.878;8.050;2023-06-26T10:40:11;25.40;98.80
35258;DHT22;21385;50.878;8.050;2023-06-26T10:42:38;25.20;99.90
35258;DHT22;21385;50.878;8.050;2023-06-26T10:45:15;25.20;99.40
35258;DHT22;21385;50.878;8.050;2023-06-26T10:47:43;25.40;98.70
35258;DHT22;21385;50.878;8.050;2023-06-26T10:55:43;25.30;97.90
35258;DHT22;21385;50.878;8.050;2023-06-26T11:01:23;25.70;96.50
35258;DHT22;21385;50.878;8.050;2023-06-26T11:06:30;25.30;97.40
35258;DHT22;21385;50.878;8.050;2023-06-26T11:14:17;24.60;99.20
35258;DHT22;21385;50.878;8.050;2023-06-26T11:16:43;24.70;98.50
35258;DHT22;21385;50.878;8.050;2023-06-26T11:19:09;24.90;98.30
35258;DHT22;21385;50.878;8.050;2023-06-26T11:21:37;25.00;98.00
35258;DHT22;21385;50.878;8.050;2023-06-26T11:24:07;25.20;96.60
35258;DHT22;21385;50.878;8.050;2023-06-26T11:26:43;25.30;96.60
35258;DHT22;21385;50.878;8.050;2023-06-26T11:29:10;25.40;95.80
35258;DHT22;21385;50.878;8.050;2023-06-26T11:31:37;25.40;96.90
35258;DHT22;21385;50.878;8.050;2023-06-26T11:34:05;25.30;94.20
35258;DHT22;21385;50.878;8.050;2023-06-26T11:36:33;25.30;95.20
35258;DHT22;21385;50.878;8.050;2023-06-26T11:39:03;25.30;94.70
35258;DHT22;21385;50.878;8.050;2023-06-26T11:41:32;25.20;94.30
35258;DHT22;21385;50.878;8.050;2023-06-26T11:44:01;25.10;92.50
35258;DHT22;21385;50.878;8.050;2023-06-26T11:46:27;25.00;93.20
35258;DHT22;21385;50.878;8.050;2023-06-26T11:48:53;25.00;94.20
35258;DHT22;21385;50.878;8.050;2023-06-26T11:51:19;25.20;95.00
35258;DHT22;21385;50.878;8.050;2023-06-26T11:53:46;25.40;94.90
35258;DHT22;21385;50.878;8.050;2023-06-26T11:56:14;25.60;94.60
35258;DHT22;21385;50.878;8.050;2023-06-26T12:04:02;25.40;91.50
35258;DHT22;21385;50.878;8.050;2023-06-26T12:06:30;25.30;88.00
35258;DHT22;21385;50.878;8.050;2023-06-26T12:08:57;25.40;88.40
35258;DHT22;21385;50.878;8.050;2023-06-26T12:11:23;25.30;90.20
35258;DHT22;21385;50.878;8.050;2023-06-26T12:13:50;25.30;91.70
35258;DHT22;21385;50.878;8.050;2023-06-26T12:16:16;25.30;90.70
35258;DHT22;21385;50.878;8.050;2023-06-26T12:18:42;25.30;92.10
35258;DHT22;21385;50.878;8.050;2023-06-26T12:21:07;25.50;84.70
35258;DHT22;21385;50.878;8.050;2023-06-26T12:23:38;25.60;85.80
35258;DHT22;21385;50.878;8.050;2023-06-26T12:26:20;25.80;81.80
35258;DHT22;21385;50.878;8.050;2023-06-26T12:28:46;25.90;85.50
35258;DHT22;21385;50.878;8.050;2023-06-26T12:31:13;26.00;88.10
35258;DHT22;21385;50.878;8.050;2023-06-26T12:33:39;26.20;86.50
35258;DHT22;21385;50.878;8.050;2023-06-26T12:36:13;26.20;87.00
35258;DHT22;21385;50.878;8.050;2023-06-26T12:38:42;26.00;88.70
35258;DHT22;21385;50.878;8.050;2023-06-26T12:41:13;26.20;89.30
35258;DHT22;21385;50.878;8.050;2023-06-26T12:43:41;26.00;87.20
35258;DHT22;21385;50.878;8.050;2023-06-26T12:46:07;25.70;85.80
35258;DHT22;21385;50.878;8.050;2023-06-26T12:51:10;25.60;86.70
35258;DHT22;21385;50.878;8.050;2023-06-26T12:53:37;25.90;84.60
35258;DHT22;21385;50.878;8.050;2023-06-26T12:56:05;26.10;81.20
35258;DHT22;21385;50.878;8.050;2023-06-26T12:58:31;26.40;78.20
35258;DHT22;21385;50.878;8.050;2023-06-26T13:00:57;26.70;83.60
35258;DHT22;21385;50.878;8.050;2023-06-26T13:03:23;27.10;83.40
35258;DHT22;21385;50.878;8.050;2023-06-26T13:05:49;27.40;77.90
35258;DHT22;21385;50.878;8.050;2023-06-26T13:08:14;27.40;76.80
35258;DHT22;21385;50.878;8.050;2023-06-26T13:10:42;27.60;76.70
35258;DHT22;21385;50.878;8.050;2023-06-26T13:13:12;27.40;72.70
35258;DHT22;21385;50.878;8.050;2023-06-26T13:15:38;27.40;75.60
35258;DHT22;21385;50.878;8.050;2023-06-26T13:18:03;27.20;75.60
35258;DHT22;21385;50.878;8.050;2023-06-26T13:20:29;27.00;74.90
35258;DHT22;21385;50.878;8.050;2023-06-26T13:22:55;26.80;75.00
35258;DHT22;21385;50.878;8.050;2023-06-26T13:25:21;26.80;72.40
35258;DHT22;21385;50.878;8.050;2023-06-26T13:27:47;27.00;71.10
35258;DHT22;21385;50.878;8.050;2023-06-26T13:30:14;27.20;69.70
35258;DHT22;21385;50.878;8.050;2023-06-26T13:32:39;27.20;70.70
35258;DHT22;21385;50.878;8.050;2023-06-26T13:35:05;27.40;69.20
35258;DHT22;21385;50.878;8.050;2023-06-26T13:37:31;27.50;70.80
35258;DHT22;21385;50.878;8.050;2023-06-26T13:39:59;27.50;71.80
35258;DHT22;21385;50.878;8.050;2023-06-26T13:42:26;27.40;71.00
35258;DHT22;21385;50.878;8.050;2023-06-26T13:44:52;27.40;68.30
35258;DHT22;21385;50.878;8.050;2023-06-26T13:47:17;27.00;69.20
35258;DHT22;21385;50.878;8.050;2023-06-26T13:49:43;26.60;70.60
35258;DHT22;21385;50.878;8.050;2023-06-26T13:52:09;26.50;72.60
35258;DHT22;21385;50.878;8.050;2023-06-26T13:54:35;26.60;72.10
35258;DHT22;21385;50.878;8.050;2023-06-26T13:57:02;26.70;75.20
35258;DHT22;21385;50.878;8.050;2023-06-26T13:59:30;27.00;73.90
35258;DHT22;21385;50.878;8.050;2023-06-26T14:01:56;27.10;74.00
35258;DHT22;21385;50.878;8.050;2023-06-26T14:04:21;27.30;74.00
35258;DHT22;21385;50.878;8.050;2023-06-26T14:06:47;27.50;75.30
35258;DHT22;21385;50.878;8.050;2023-06-26T14:09:13;27.40;71.60
35258;DHT22;21385;50.878;8.050;2023-06-26T14:11:39;26.80;72.90
35258;DHT22;21385;50.878;8.050;2023-06-26T14:14:04;26.50;74.10
35258;DHT22;21385;50.878;8.050;2023-06-26T14:16:30;26.50;73.60
35258;DHT22;21385;50.878;8.050;2023-06-26T14:18:57;26.50;73.30
35258;DHT22;21385;50.878;8.050;2023-06-26T14:21:23;26.50;70.40
35258;DHT22;21385;50.878;8.050;2023-06-26T14:23:48;26.50;70.50
35258;DHT22;21385;50.878;8.050;2023-06-26T14:26:14;26.40;71.30
35258;DHT22;21385;50.878;8.050;2023-06-26T14:28:40;26.50;72.40
35258;DHT22;21385;50.878;8.050;2023-06-26T14:31:06;26.50;71.90
35258;DHT22;21385;50.878;8.050;2023-06-26T14:33:31;26.30;73.30
35258;DHT22;21385;50.878;8.050;2023-06-26T14:35:57;26.00;75.20
35258;DHT22;21385;50.878;8.050;2023-06-26T14:38:23;25.70;76.10
35258;DHT22;21385;50.878;8.050;2023-06-26T14:40:48;25.60;77.80
35258;DHT22;21385;50.878;8.050;2023-06-26T14:43:14;25.50;79.00
35258;DHT22;21385;50.878;8.050;2023-06-26T14:45:40;25.40;78.20
35258;DHT22;21385;50.878;8.050;2023-06-26T14:48:05;25.20;79.90
35258;DHT22;21385;50.878;8.050;2023-06-26T14:50:31;25.30;82.50
35258;DHT22;21385;50.878;8.050;2023-06-26T14:52:56;25.60;80.10
35258;DHT22;21385;50.878;8.050;2023-06-26T14:55:22;25.80;77.30
35258;DHT22;21385;50.878;8.050;2023-06-26T14:57:48;25.90;75.10
35258;DHT22;21385;50.878;8.050;2023-06-26T15:00:14;25.70;76.60
35258;DHT22;21385;50.878;8.050;2023-06-26T15:02:40;25.60;78.90
35258;DHT22;21385;50.878;8.050;2023-06-26T15:05:07;25.30;77.90
35258;DHT22;21385;50.878;8.050;2023-06-26T15:07:32;25.10;79.10
35258;DHT22;21385;50.878;8.050;2023-06-26T15:09:59;25.10;78.20
35258;DHT22;21385;50.878;8.050;2023-06-26T15:12:25;25.20;79.20
35258;DHT22;21385;50.878;8.050;2023-06-26T15:14:50;25.40;76.70
35258;DHT22;21385;50.878;8.050;2023-06-26T15:17:17;25.60;75.90
35258;DHT22;21385;50.878;8.050;2023-06-26T15:19:43;25.60;76.40
35258;DHT22;21385;50.878;8.050;2023-06-26T15:22:08;25.50;75.90
35258;DHT22;21385;50.878;8.050;2023-06-26T15:24:34;25.20;74.90
35258;DHT22;21385;50.878;8.050;2023-06-26T15:26:59;24.90;76.00
35258;DHT22;21385;50.878;8.050;2023-06-26T15:29:25;24.70;76.80
35258;DHT22;21385;50.878;8.050;2023-06-26T15:31:51;24.70;78.30
35258;DHT22;21385;50.878;8.050;2023-06-26T15:34:17;24.80;77.80
35258;DHT22;21385;50.878;8.050;2023-06-26T15:36:42;25.10;74.50
35258;DHT22;21385;50.878;8.050;2023-06-26T15:39:09;25.10;74.70
35258;DHT22;21385;50.878;8.050;2023-06-26T15:41:35;25.30;72.80
35258;DHT22;21385;50.878;8.050;2023-06-26T15:44:03;25.40;72.70
35258;DHT22;21385;50.878;8.050;2023-06-26T15:46:29;25.70;72.20
35258;DHT22;21385;50.878;8.050;2023-06-26T15:48:54;25.70;68.50
35258;DHT22;21385;50.878;8.050;2023-06-26T15:51:20;25.60;68.30
35258;DHT22;21385;50.878;8.050;2023-06-26T15:53:45;25.50;68.30
35258;DHT22;21385;50.878;8.050;2023-06-26T15:56:12;25.20;69.40
35258;DHT22;21385;50.878;8.050;2023-06-26T15:58:38;25.00;71.20
35258;DHT22;21385;50.878;8.050;2023-06-26T16:01:08;24.80;70.80
35258;DHT22;21385;50.878;8.050;2023-06-26T16:03:34;24.70;68.90
35258;DHT22;21385;50.878;8.050;2023-06-26T16:06:00;24.50;70.40
35258;DHT22;21385;50.878;8.050;2023-06-26T16:08:26;24.30;70.50